Time;durP1;ratioP1;P1;durP2;ratioP2;P2;SDS_P1;SDS_P2;PMS_P1;PMS_P2;Temp;Humidity;BMP_temperature;BMP_pressure;BME280_temperature;BME280_humidity;BME280_pressure;Samples;Min_cycle;Max_cycle;Signal;HPM_P1;HPM_P2
2022/03/20 00:00:13;;;;;;;29.90;14.67;;;;;;;;;;4449791;32;20322;-50
2022/03/20 00:02:39;;;;;;;22.60;13.60;;;;;;;;;;4450102;32;20319;-51
2022/03/20 00:05:05;;;;;;;31.30;16.00;;;;;;;;;;4449871;32;20370;-52
2022/03/20 00:07:34;;;;;;;31.77;16.47;;;;;;;;;;4447904;32;20387;-50
2022/03/20 00:10:04;;;;;;;27.03;15.13;;;;;;;;;;4450047;32;20644;-50
2022/03/20 00:12:30;;;;;;;36.50;18.00;;;;;;;;;;4450105;32;20679;-49
2022/03/20 00:14:56;;;;;;;34.50;16.53;;;;;;;;;;4450054;32;20288;-51
2022/03/20 00:17:21;;;;;;;38.63;17.80;;;;;;;;;;4449884;32;20799;-50
2022/03/20 00:19:47;;;;;;;38.97;19.90;;;;;;;;;;4449907;32;20267;-52
2022/03/20 00:22:14;;;;;;;47.23;22.97;;;;;;;;;;4449647;32;20318;-51
2022/03/20 00:24:43;;;;;;;40.97;20.90;;;;;;;;;;4452257;32;20571;-50
2022/03/20 00:27:11;;;;;;;34.20;20.50;;;;;;;;;;4465383;32;20204;-50
2022/03/20 00:29:36;;;;;;;37.60;19.50;;;;;;;;;;4459404;32;20305;-51
2022/03/20 00:32:03;;;;;;;34.07;16.73;;;;;;;;;;4460173;32;20263;-50
2022/03/20 00:34:29;;;;;;;32.07;16.30;;;;;;;;;;4465280;32;20282;-50
2022/03/20 00:36:55;;;;;;;37.63;18.27;;;;;;;;;;4465200;32;20200;-49
2022/03/20 00:39:20;;;;;;;28.10;16.50;;;;;;;;;;4465456;32;20290;-50
2022/03/20 00:41:45;;;;;;;22.50;14.27;;;;;;;;;;4465233;32;20601;-51
2022/03/20 00:44:11;;;;;;;24.70;15.10;;;;;;;;;;4463843;32;20326;-50
2022/03/20 00:46:36;;;;;;;25.40;13.77;;;;;;;;;;4465034;32;20215;-51
2022/03/20 00:49:02;;;;;;;24.37;12.87;;;;;;;;;;4464616;32;20683;-50
2022/03/20 00:51:28;;;;;;;20.03;11.87;;;;;;;;;;4464812;32;20605;-50
2022/03/20 00:53:54;;;;;;;26.13;15.20;;;;;;;;;;4465193;32;20228;-51
2022/03/20 00:56:19;;;;;;;25.93;12.10;;;;;;;;;;4455842;32;20710;-50
2022/03/20 00:58:46;;;;;;;19.73;12.63;;;;;;;;;;4449108;32;20229;-50
2022/03/20 01:01:13;;;;;;;19.87;11.43;;;;;;;;;;4448355;32;20283;-49
2022/03/20 01:03:40;;;;;;;20.87;11.23;;;;;;;;;;4446957;32;20244;-50
2022/03/20 01:06:07;;;;;;;17.73;10.63;;;;;;;;;;4449034;32;20691;-49
2022/03/20 01:08:34;;;;;;;20.27;10.07;;;;;;;;;;4449127;32;20348;-50
2022/03/20 01:11:01;;;;;;;21.67;11.60;;;;;;;;;;4448625;32;20262;-49
2022/03/20 01:13:26;;;;;;;18.70;11.33;;;;;;;;;;4449192;32;20233;-49
2022/03/20 01:15:52;;;;;;;16.33;10.73;;;;;;;;;;4449378;32;20332;-50
2022/03/20 01:18:17;;;;;;;15.40;10.03;;;;;;;;;;4447670;32;20355;-49
2022/03/20 01:20:43;;;;;;;16.93;10.27;;;;;;;;;;4448812;32;20303;-51
2022/03/20 01:23:08;;;;;;;21.83;10.40;;;;;;;;;;4448923;32;20233;-50
2022/03/20 01:25:34;;;;;;;18.50;11.27;;;;;;;;;;4448801;32;20650;-51
2022/03/20 01:27:59;;;;;;;18.30;10.90;;;;;;;;;;4448941;32;20279;-51
2022/03/20 01:30:25;;;;;;;20.23;10.43;;;;;;;;;;4449016;32;20330;-51
2022/03/20 01:32:51;;;;;;;14.70;10.30;;;;;;;;;;4448957;32;20359;-50
2022/03/20 01:35:16;;;;;;;15.63;9.57;;;;;;;;;;4448974;32;20334;-49
2022/03/20 01:37:41;;;;;;;14.57;8.47;;;;;;;;;;4448530;32;20247;-50
2022/03/20 01:40:08;;;;;;;15.90;10.17;;;;;;;;;;4448969;32;20430;-50
2022/03/20 01:42:33;;;;;;;17.07;11.20;;;;;;;;;;4448844;32;20553;-51
2022/03/20 01:44:59;;;;;;;21.40;10.63;;;;;;;;;;4448988;32;20275;-52
2022/03/20 01:47:24;;;;;;;18.20;9.80;;;;;;;;;;4448444;32;20201;-50
2022/03/20 01:49:50;;;;;;;20.27;10.67;;;;;;;;;;4448872;32;20209;-50
2022/03/20 01:52:24;;;;;;;21.40;7.83;;;;;;;;;;4448352;32;20267;-49
2022/03/20 01:54:50;;;;;;;14.80;8.40;;;;;;;;;;4448623;32;20580;-50
2022/03/20 01:57:21;;;;;;;16.37;8.43;;;;;;;;;;4448283;32;20362;-49
2022/03/20 01:59:50;;;;;;;15.77;9.53;;;;;;;;;;4448395;32;20261;-49
2022/03/20 02:02:16;;;;;;;13.27;9.23;;;;;;;;;;4448376;32;20260;-49
2022/03/20 02:04:42;;;;;;;25.73;11.73;;;;;;;;;;4448378;32;20343;-50
2022/03/20 02:07:08;;;;;;;27.07;13.53;;;;;;;;;;4448411;32;20522;-50
2022/03/20 02:09:40;;;;;;;24.43;13.97;;;;;;;;;;4447940;32;20303;-50
2022/03/20 02:12:05;;;;;;;27.73;13.97;;;;;;;;;;4463935;32;20205;-50
2022/03/20 02:14:34;;;;;;;19.37;12.30;;;;;;;;;;4464194;32;20765;-49
2022/03/20 02:17:01;;;;;;;12.97;9.17;;;;;;;;;;4463799;32;20624;-48
2022/03/20 02:19:27;;;;;;;19.50;8.63;;;;;;;;;;4456677;32;20262;-49
2022/03/20 02:21:52;;;;;;;15.03;9.70;;;;;;;;;;4448543;32;20216;-49
2022/03/20 02:24:36;;;;;;;14.67;8.70;;;;;;;;;;4448256;32;20548;-50
2022/03/20 02:27:02;;;;;;;18.57;10.87;;;;;;;;;;4448070;32;20313;-49
2022/03/20 02:29:28;;;;;;;17.70;10.73;;;;;;;;;;4448530;32;20247;-49
2022/03/20 02:31:53;;;;;;;18.23;9.87;;;;;;;;;;4450594;32;20220;-50
2022/03/20 02:34:19;;;;;;;18.50;10.30;;;;;;;;;;4451633;32;20236;-50
2022/03/20 02:36:44;;;;;;;19.87;11.83;;;;;;;;;;4451398;32;20261;-50
2022/03/20 02:39:10;;;;;;;20.27;10.43;;;;;;;;;;4451206;32;20232;-49
2022/03/20 02:41:38;;;;;;;15.03;9.97;;;;;;;;;;4451383;32;20328;-51
2022/03/20 02:44:03;;;;;;;16.97;9.27;;;;;;;;;;4451487;32;20274;-50
2022/03/20 02:46:31;;;;;;;21.17;11.43;;;;;;;;;;4450459;32;20231;-50
2022/03/20 02:48:58;;;;;;;17.43;9.97;;;;;;;;;;4451143;32;20614;-49
2022/03/20 02:51:24;;;;;;;17.83;10.17;;;;;;;;;;4450930;32;20220;-49
2022/03/20 02:53:50;;;;;;;19.63;9.13;;;;;;;;;;4451066;32;20303;-50
2022/03/20 02:56:15;;;;;;;18.70;8.83;;;;;;;;;;4451205;32;20363;-49
2022/03/20 02:58:41;;;;;;;13.40;8.47;;;;;;;;;;4451165;32;20394;-50
2022/03/20 03:01:06;;;;;;;17.57;9.17;;;;;;;;;;4451183;32;20366;-50
2022/03/20 03:03:32;;;;;;;20.53;10.87;;;;;;;;;;4451136;32;20600;-49
2022/03/20 03:05:58;;;;;;;20.17;11.07;;;;;;;;;;4450682;32;20279;-50
2022/03/20 03:11:08;;;;;;;17.73;9.23;;;;;;;;;;4450780;32;20235;-49
2022/03/20 03:13:37;;;;;;;21.60;10.33;;;;;;;;;;4451631;32;20227;-50
2022/03/20 03:16:05;;;;;;;16.90;8.80;;;;;;;;;;4451184;32;20613;-50
2022/03/20 03:18:31;;;;;;;13.40;8.97;;;;;;;;;;4452211;32;20251;-50
2022/03/20 03:20:57;;;;;;;15.63;7.90;;;;;;;;;;4466681;32;20297;-50
2022/03/20 03:23:26;;;;;;;12.33;8.83;;;;;;;;;;4466595;32;20277;-50
2022/03/20 03:25:53;;;;;;;17.37;9.27;;;;;;;;;;4455743;32;20283;-49
2022/03/20 03:28:18;;;;;;;13.50;7.80;;;;;;;;;;4451006;32;20247;-49
2022/03/20 03:30:46;;;;;;;19.47;8.77;;;;;;;;;;4450844;32;20283;-52
2022/03/20 03:33:17;;;;;;;16.73;9.30;;;;;;;;;;4451038;32;20283;-50
2022/03/20 03:35:51;;;;;;;15.27;8.10;;;;;;;;;;4451498;32;20227;-50
2022/03/20 03:38:19;;;;;;;14.77;7.80;;;;;;;;;;4451025;32;20614;-51
2022/03/20 03:40:46;;;;;;;15.17;8.80;;;;;;;;;;4450372;32;20251;-51
2022/03/20 03:43:15;;;;;;;17.93;9.30;;;;;;;;;;4450555;32;20652;-50
2022/03/20 03:45:41;;;;;;;18.57;11.03;;;;;;;;;;4450590;32;20213;-50
2022/03/20 03:48:08;;;;;;;16.50;9.27;;;;;;;;;;4450393;32;20771;-50
2022/03/20 03:50:36;;;;;;;16.13;8.80;;;;;;;;;;4450525;32;20235;-51
2022/03/20 03:53:03;;;;;;;16.10;8.20;;;;;;;;;;4450339;32;20619;-51
2022/03/20 03:55:29;;;;;;;17.47;9.73;;;;;;;;;;4448902;32;20727;-51
2022/03/20 03:57:55;;;;;;;16.90;8.57;;;;;;;;;;4450261;32;20576;-50
2022/03/20 04:00:21;;;;;;;12.87;8.80;;;;;;;;;;4449094;32;20326;-52
2022/03/20 04:02:48;;;;;;;11.63;8.00;;;;;;;;;;4449805;32;20298;-50
2022/03/20 04:05:20;;;;;;;12.53;8.57;;;;;;;;;;4450380;32;20230;-51
2022/03/20 04:07:47;;;;;;;12.50;7.40;;;;;;;;;;4450519;32;20228;-51
2022/03/20 04:10:14;;;;;;;13.03;7.83;;;;;;;;;;4454234;32;20204;-51
2022/03/20 04:12:40;;;;;;;14.33;8.40;;;;;;;;;;4465845;32;20239;-51
2022/03/20 04:15:07;;;;;;;12.87;8.57;;;;;;;;;;4465672;32;20252;-51
2022/03/20 04:17:33;;;;;;;16.83;9.63;;;;;;;;;;4465399;32;20410;-52
2022/03/20 04:19:59;;;;;;;9.27;7.20;;;;;;;;;;4455227;32;20280;-52
2022/03/20 04:22:26;;;;;;;19.33;10.70;;;;;;;;;;4449704;32;20205;-50
2022/03/20 04:24:52;;;;;;;13.03;8.43;;;;;;;;;;4449865;32;20279;-50
2022/03/20 04:27:18;;;;;;;14.90;8.20;;;;;;;;;;4449945;32;20197;-52
2022/03/20 04:29:44;;;;;;;14.47;7.27;;;;;;;;;;4450349;32;20327;-52
2022/03/20 04:32:11;;;;;;;17.70;9.77;;;;;;;;;;4449803;32;20220;-50
2022/03/20 04:34:37;;;;;;;17.13;10.20;;;;;;;;;;4448708;32;20270;-50
2022/03/20 04:37:06;;;;;;;21.03;9.77;;;;;;;;;;4450017;32;20193;-51
2022/03/20 04:39:33;;;;;;;15.73;8.20;;;;;;;;;;4449804;32;20303;-51
2022/03/20 04:41:59;;;;;;;16.40;8.83;;;;;;;;;;4449671;32;20250;-50
2022/03/20 04:44:25;;;;;;;11.23;7.13;;;;;;;;;;4450123;32;20566;-50
2022/03/20 04:46:51;;;;;;;15.43;8.23;;;;;;;;;;4449917;32;20248;-50
2022/03/20 05:00:13;;;;;;;21.93;12.20;;;;;;;;;;4461684;32;20276;-52
2022/03/20 05:02:39;;;;;;;23.83;12.97;;;;;;;;;;4465221;32;20618;-52
2022/03/20 05:05:05;;;;;;;25.03;13.67;;;;;;;;;;4465178;32;20692;-51
2022/03/20 05:07:32;;;;;;;25.70;14.80;;;;;;;;;;4465026;32;20688;-50
2022/03/20 05:15:29;;;;;;;16.57;11.60;;;;;;;;;;4449166;32;20270;-52
2022/03/20 05:17:54;;;;;;;25.30;12.80;;;;;;;;;;4449196;32;20225;-52
2022/03/20 05:20:23;;;;;;;18.70;12.83;;;;;;;;;;4461956;32;20347;-50
2022/03/20 05:22:49;;;;;;;26.83;12.97;;;;;;;;;;4464668;32;20368;-51
2022/03/20 05:25:16;;;;;;;26.33;13.73;;;;;;;;;;4458106;32;20433;-51
2022/03/20 05:27:41;;;;;;;30.60;14.97;;;;;;;;;;4448009;32;20255;-51
2022/03/20 05:30:07;;;;;;;29.90;15.47;;;;;;;;;;4449635;32;20291;-51
2022/03/20 05:32:35;;;;;;;30.37;18.07;;;;;;;;;;4462857;32;20338;-51
2022/03/20 05:35:07;;;;;;;41.93;21.83;;;;;;;;;;4464717;32;20196;-51
2022/03/20 05:37:32;;;;;;;44.50;21.20;;;;;;;;;;4464614;32;20370;-53
2022/03/20 05:39:59;;;;;;;40.77;23.50;;;;;;;;;;4464182;32;20298;-52
2022/03/20 05:42:24;;;;;;;37.23;20.77;;;;;;;;;;4464395;32;20215;-52
2022/03/20 05:44:50;;;;;;;46.63;21.00;;;;;;;;;;4464767;32;20650;-51
2022/03/20 05:47:16;;;;;;;66.77;37.80;;;;;;;;;;4464214;32;20338;-50
2022/03/20 05:49:41;;;;;;;48.30;22.47;;;;;;;;;;4464031;32;20311;-50
2022/03/20 05:52:07;;;;;;;32.40;19.10;;;;;;;;;;4463926;32;20698;-51
2022/03/20 05:54:33;;;;;;;30.00;18.20;;;;;;;;;;4462941;32;20288;-51
2022/03/20 05:59:43;;;;;;;22.20;12.07;;;;;;;;;;4448635;32;20297;-50
2022/03/20 06:02:09;;;;;;;14.93;10.10;;;;;;;;;;4448410;32;20216;-51
2022/03/20 06:04:35;;;;;;;15.73;9.13;;;;;;;;;;4448209;32;20303;-52
2022/03/20 06:07:01;;;;;;;19.80;9.83;;;;;;;;;;4448369;32;20362;-51
2022/03/20 06:09:27;;;;;;;12.80;7.83;;;;;;;;;;4448795;32;20217;-51
2022/03/20 06:11:53;;;;;;;25.47;10.13;;;;;;;;;;4463604;32;20327;-51
2022/03/20 06:14:18;;;;;;;15.83;9.13;;;;;;;;;;4464410;32;20632;-51
2022/03/20 06:16:47;;;;;;;7.77;6.00;;;;;;;;;;4463889;32;20212;-51
2022/03/20 06:19:15;;;;;;;7.53;5.43;;;;;;;;;;4458487;32;20303;-52
2022/03/20 06:21:44;;;;;;;7.90;5.70;;;;;;;;;;4448478;32;20796;-50
2022/03/20 06:24:10;;;;;;;7.57;5.43;;;;;;;;;;4448612;32;20236;-51
2022/03/20 06:26:36;;;;;;;8.37;5.53;;;;;;;;;;4448454;32;20630;-53
2022/03/20 06:29:05;;;;;;;12.23;7.07;;;;;;;;;;4448435;32;20633;-51
2022/03/20 06:31:31;;;;;;;11.33;6.13;;;;;;;;;;4448363;32;20260;-51
2022/03/20 06:33:56;;;;;;;10.17;6.20;;;;;;;;;;4448849;32;20224;-51
2022/03/20 06:36:22;;;;;;;10.90;6.03;;;;;;;;;;4448714;32;20196;-51
2022/03/20 06:38:47;;;;;;;7.03;5.33;;;;;;;;;;4447538;32;20240;-51
2022/03/20 06:41:13;;;;;;;6.57;4.33;;;;;;;;;;4448654;32;20267;-51
2022/03/20 06:43:39;;;;;;;7.03;4.73;;;;;;;;;;4448590;32;20282;-51
2022/03/20 06:46:06;;;;;;;18.97;6.20;;;;;;;;;;4447191;32;20299;-51
2022/03/20 06:48:32;;;;;;;7.53;5.17;;;;;;;;;;4448383;32;20304;-50
2022/03/20 06:50:57;;;;;;;7.97;4.37;;;;;;;;;;4448205;32;20310;-52
2022/03/20 06:53:23;;;;;;;9.67;5.70;;;;;;;;;;4447918;32;20228;-51
2022/03/20 06:55:49;;;;;;;14.00;8.67;;;;;;;;;;4447232;32;20315;-51
2022/03/20 06:58:15;;;;;;;15.63;9.17;;;;;;;;;;4448104;32;20270;-52
2022/03/20 07:00:40;;;;;;;73.97;44.97;;;;;;;;;;4448542;32;20316;-53
2022/03/20 07:03:08;;;;;;;29.50;16.87;;;;;;;;;;4448645;32;20224;-52
2022/03/20 07:05:35;;;;;;;14.07;8.80;;;;;;;;;;4448373;32;20221;-52
2022/03/20 07:08:01;;;;;;;87.17;39.90;;;;;;;;;;4448353;32;20293;-51
2022/03/20 07:10:27;;;;;;;33.67;17.40;;;;;;;;;;4448179;32;20254;-52
2022/03/20 07:15:41;;;;;;;39.03;15.73;;;;;;;;;;4448143;32;20219;-52
2022/03/20 07:18:08;;;;;;;15.27;7.63;;;;;;;;;;4450507;32;20652;-52
2022/03/20 07:20:34;;;;;;;17.53;7.70;;;;;;;;;;4465293;32;20238;-53
2022/03/20 07:23:00;;;;;;;25.40;8.80;;;;;;;;;;4466330;32;20220;-52
2022/03/20 07:30:56;;;;;;;29.17;12.20;;;;;;;;;;4448683;32;20234;-52
2022/03/20 07:33:25;;;;;;;15.17;7.43;;;;;;;;;;4447781;32;20414;-51
2022/03/20 07:35:51;;;;;;;43.20;14.73;;;;;;;;;;4447580;32;20656;-51
2022/03/20 07:38:16;;;;;;;14.17;6.70;;;;;;;;;;4463585;32;20243;-52
2022/03/20 07:40:41;;;;;;;5.77;4.70;;;;;;;;;;4466461;32;20267;-51
2022/03/20 07:43:07;;;;;;;10.83;5.27;;;;;;;;;;4466316;32;20250;-51
2022/03/20 07:45:34;;;;;;;308.47;78.20;;;;;;;;;;4466124;32;20318;-52
2022/03/20 07:48:00;;;;;;;33.10;13.13;;;;;;;;;;4459531;32;20274;-51
2022/03/20 07:50:25;;;;;;;23.70;10.87;;;;;;;;;;4450772;32;20680;-51
2022/03/20 07:52:50;;;;;;;26.37;9.53;;;;;;;;;;4450037;32;20395;-52
2022/03/20 07:55:17;;;;;;;14.00;6.77;;;;;;;;;;4450358;32;20308;-52
2022/03/20 07:57:43;;;;;;;19.23;9.07;;;;;;;;;;4450835;32;20727;-51
2022/03/20 08:00:09;;;;;;;11.97;5.70;;;;;;;;;;4451438;32;20766;-52
2022/03/20 08:02:35;;;;;;;17.03;11.20;;;;;;;;;;4450190;32;20541;-52
2022/03/20 08:05:01;;;;;;;7.40;5.17;;;;;;;;;;4449995;32;20306;-52
2022/03/20 08:07:26;;;;;;;9.17;5.00;;;;;;;;;;4449915;32;20579;-51
2022/03/20 08:09:52;;;;;;;11.40;5.20;;;;;;;;;;4450094;32;20410;-53
2022/03/20 08:12:17;;;;;;;12.10;8.97;;;;;;;;;;4449973;32;20204;-51
2022/03/20 08:14:44;;;;;;;10.73;6.07;;;;;;;;;;4449848;32;20196;-52
2022/03/20 08:17:10;;;;;;;13.03;6.73;;;;;;;;;;4449760;32;20637;-52
2022/03/20 08:19:35;;;;;;;9.77;5.27;;;;;;;;;;4456575;32;20528;-52
2022/03/20 08:22:03;;;;;;;7.93;5.67;;;;;;;;;;4463602;32;20275;-51
2022/03/20 08:24:29;;;;;;;11.67;6.10;;;;;;;;;;4464519;32;20565;-51
2022/03/20 08:26:54;;;;;;;10.27;6.27;;;;;;;;;;4463589;32;20236;-51
2022/03/20 08:29:20;;;;;;;8.43;5.33;;;;;;;;;;4449172;32;20623;-51
2022/03/20 08:31:47;;;;;;;7.77;5.33;;;;;;;;;;4448225;32;20209;-52
2022/03/20 08:34:14;;;;;;;11.07;6.23;;;;;;;;;;4449563;32;20319;-52
2022/03/20 08:36:41;;;;;;;12.03;7.60;;;;;;;;;;4449822;32;20247;-52
2022/03/20 08:39:06;;;;;;;10.00;5.90;;;;;;;;;;4449690;32;20288;-52
2022/03/20 08:41:33;;;;;;;12.20;4.80;;;;;;;;;;4448323;32;20215;-51
2022/03/20 08:43:58;;;;;;;10.43;5.23;;;;;;;;;;4449278;32;20376;-51
2022/03/20 08:46:24;;;;;;;8.03;5.13;;;;;;;;;;4449563;32;20197;-51
2022/03/20 08:48:50;;;;;;;7.27;4.20;;;;;;;;;;4449537;32;20324;-52
2022/03/20 08:51:15;;;;;;;5.57;4.47;;;;;;;;;;4449302;32;20346;-51
2022/03/20 08:53:41;;;;;;;5.13;4.37;;;;;;;;;;4449138;32;20295;-52
2022/03/20 08:56:06;;;;;;;6.40;4.67;;;;;;;;;;4449344;32;20688;-51
2022/03/20 08:58:32;;;;;;;7.47;4.03;;;;;;;;;;4454260;32;20290;-51
2022/03/20 09:00:59;;;;;;;5.30;4.10;;;;;;;;;;4464640;32;20259;-51
2022/03/20 09:03:27;;;;;;;10.13;7.80;;;;;;;;;;4461054;32;20577;-51
2022/03/20 09:05:53;;;;;;;5.20;4.03;;;;;;;;;;4449485;32;20257;-52
2022/03/20 09:08:18;;;;;;;10.47;6.77;;;;;;;;;;4449099;32;20290;-52
2022/03/20 09:10:44;;;;;;;11.07;6.40;;;;;;;;;;4448883;32;20387;-52
2022/03/20 09:13:09;;;;;;;10.33;5.83;;;;;;;;;;4449168;32;20422;-51
2022/03/20 09:15:35;;;;;;;13.30;6.17;;;;;;;;;;4449082;32;20307;-51
2022/03/20 09:20:45;;;;;;;8.30;5.13;;;;;;;;;;4464436;32;20265;-51
2022/03/20 09:23:12;;;;;;;10.03;6.07;;;;;;;;;;4464406;32;20227;-51
2022/03/20 09:25:39;;;;;;;12.00;5.93;;;;;;;;;;4464689;32;20220;-52
2022/03/20 09:28:07;;;;;;;9.83;4.73;;;;;;;;;;4455351;32;20231;-51
2022/03/20 09:30:33;;;;;;;9.23;5.67;;;;;;;;;;4448993;32;20576;-52
2022/03/20 09:33:01;;;;;;;15.70;4.93;;;;;;;;;;4448971;32;20328;-52
2022/03/20 09:35:26;;;;;;;19.40;5.40;;;;;;;;;;4448696;32;20287;-51
2022/03/20 09:37:52;;;;;;;6.20;4.83;;;;;;;;;;4448750;32;20310;-52
2022/03/20 09:40:22;;;;;;;11.63;5.37;;;;;;;;;;4448420;32;20754;-52
2022/03/20 09:42:48;;;;;;;8.50;5.53;;;;;;;;;;4448469;32;20682;-52
2022/03/20 09:45:17;;;;;;;7.27;4.73;;;;;;;;;;4449118;32;20306;-52
2022/03/20 09:47:42;;;;;;;9.00;5.37;;;;;;;;;;4448500;32;20312;-52
2022/03/20 09:50:10;;;;;;;9.70;6.40;;;;;;;;;;4449021;32;20212;-52
2022/03/20 09:52:36;;;;;;;10.00;5.87;;;;;;;;;;4448231;32;20315;-52
2022/03/20 09:55:04;;;;;;;7.53;5.17;;;;;;;;;;4448482;32;20260;-53
2022/03/20 09:57:29;;;;;;;9.50;5.80;;;;;;;;;;4448710;32;20678;-51
2022/03/20 09:59:57;;;;;;;11.47;6.50;;;;;;;;;;4461846;32;20343;-51
2022/03/20 10:02:25;;;;;;;11.27;6.37;;;;;;;;;;4463848;32;20230;-52
2022/03/20 10:04:59;;;;;;;11.90;7.57;;;;;;;;;;4457507;32;20545;-52
2022/03/20 10:07:29;;;;;;;8.20;4.40;;;;;;;;;;4447969;32;20276;-51
2022/03/20 10:10:18;;;;;;;10.30;5.77;;;;;;;;;;4450743;32;20212;-52
2022/03/20 10:12:45;;;;;;;25.43;12.80;;;;;;;;;;4464188;32;20255;-52
2022/03/20 10:15:30;;;;;;;13.83;5.47;;;;;;;;;;4464009;32;20258;-53
2022/03/20 10:18:23;;;;;;;15.57;9.50;;;;;;;;;;4464002;32;20248;-52
2022/03/20 10:20:58;;;;;;;11.40;5.50;;;;;;;;;;4461836;32;20344;-52
2022/03/20 10:23:39;;;;;;;7.17;4.93;;;;;;;;;;4461690;32;20261;-52
2022/03/20 10:26:13;;;;;;;15.87;8.40;;;;;;;;;;4461636;32;20613;-52
2022/03/20 10:28:42;;;;;;;34.97;17.83;;;;;;;;;;4463705;32;20307;-52
2022/03/20 10:31:31;;;;;;;8.80;5.57;;;;;;;;;;4463634;32;20513;-52
2022/03/20 10:34:01;;;;;;;7.43;4.87;;;;;;;;;;4463856;32;20289;-53
2022/03/20 10:36:26;;;;;;;20.90;7.20;;;;;;;;;;4459053;32;20221;-52
2022/03/20 10:38:52;;;;;;;12.37;5.17;;;;;;;;;;4448794;32;20777;-52
2022/03/20 10:41:19;;;;;;;9.53;4.13;;;;;;;;;;4448352;32;20239;-52
2022/03/20 10:43:45;;;;;;;12.47;7.07;;;;;;;;;;4447423;32;20324;-53
2022/03/20 10:46:57;;;;;;;16.53;8.80;;;;;;;;;;4448049;32;20723;-52
2022/03/20 10:49:23;;;;;;;21.10;8.23;;;;;;;;;;4411218;32;20726;-52
2022/03/20 10:52:09;;;;;;;15.33;4.93;;;;;;;;;;4448934;32;20261;-52
2022/03/20 10:54:54;;;;;;;9.87;5.23;;;;;;;;;;4451291;32;20300;-54
2022/03/20 10:57:20;;;;;;;9.77;4.73;;;;;;;;;;4451171;32;20204;-52
2022/03/20 11:00:07;;;;;;;9.83;5.70;;;;;;;;;;4451005;32;20200;-54
2022/03/20 11:02:36;;;;;;;13.77;8.77;;;;;;;;;;4451166;32;20338;-54
2022/03/20 11:05:02;;;;;;;10.53;5.43;;;;;;;;;;4450732;32;20322;-53
2022/03/20 11:07:28;;;;;;;57.27;23.50;;;;;;;;;;4450673;32;20327;-52
2022/03/20 11:09:55;;;;;;;40.93;15.93;;;;;;;;;;4450669;32;20336;-53
2022/03/20 11:12:27;;;;;;;35.83;12.67;;;;;;;;;;4450594;32;20236;-52
2022/03/20 11:14:57;;;;;;;17.03;10.43;;;;;;;;;;4450841;32;20196;-52
2022/03/20 11:17:26;;;;;;;25.27;10.80;;;;;;;;;;4450944;32;20261;-53
2022/03/20 11:19:54;;;;;;;9.10;5.90;;;;;;;;;;4460435;32;20282;-52
2022/03/20 11:22:21;;;;;;;9.43;5.73;;;;;;;;;;4465970;32;20615;-54
2022/03/20 11:24:48;;;;;;;6.33;4.03;;;;;;;;;;4466233;32;20264;-53
2022/03/20 11:27:21;;;;;;;9.97;7.53;;;;;;;;;;4466147;32;20258;-53
2022/03/20 11:29:50;;;;;;;10.07;6.47;;;;;;;;;;4466273;32;20227;-53
2022/03/20 11:32:17;;;;;;;29.23;13.80;;;;;;;;;;4463929;32;20220;-53
2022/03/20 11:34:46;;;;;;;44.77;18.70;;;;;;;;;;4450575;32;20276;-53
2022/03/20 11:37:15;;;;;;;13.47;6.57;;;;;;;;;;4450581;32;20370;-52
2022/03/20 11:40:08;;;;;;;19.53;10.23;;;;;;;;;;4450737;32;20587;-52
2022/03/20 11:42:34;;;;;;;14.80;8.50;;;;;;;;;;4450628;32;20247;-53
2022/03/20 11:44:59;;;;;;;18.77;10.37;;;;;;;;;;4450646;32;20363;-53
2022/03/20 11:47:29;;;;;;;6.17;4.40;;;;;;;;;;4450666;32;20239;-53
2022/03/20 11:50:26;;;;;;;8.47;4.60;;;;;;;;;;4450959;32;20192;-52
2022/03/20 11:53:01;;;;;;;14.90;9.63;;;;;;;;;;4450399;32;20376;-51
2022/03/20 11:55:41;;;;;;;28.10;15.70;;;;;;;;;;4451004;32;20243;-53
2022/03/20 11:58:33;;;;;;;10.33;6.57;;;;;;;;;;4452376;32;20338;-52
2022/03/20 12:01:12;;;;;;;17.00;9.20;;;;;;;;;;4466070;32;20528;-52
2022/03/20 12:03:47;;;;;;;10.43;5.73;;;;;;;;;;4465101;32;20243;-52
2022/03/20 12:06:30;;;;;;;25.30;11.17;;;;;;;;;;4457076;32;20286;-52
2022/03/20 12:09:33;;;;;;;28.13;9.03;;;;;;;;;;4450378;32;20274;-53
2022/03/20 12:12:34;;;;;;;8.97;5.13;;;;;;;;;;4448791;32;20224;-52
2022/03/20 12:15:07;;;;;;;10.10;5.63;;;;;;;;;;4450487;32;20287;-52
2022/03/20 12:17:56;;;;;;;25.47;10.43;;;;;;;;;;4450307;32;20221;-53
2022/03/20 12:20:55;;;;;;;25.27;11.53;;;;;;;;;;4463017;32;20702;-52
2022/03/20 12:23:29;;;;;;;19.00;9.30;;;;;;;;;;4465612;32;20260;-52
2022/03/20 12:25:54;;;;;;;36.07;16.60;;;;;;;;;;4465915;32;20764;-53
2022/03/20 12:28:30;;;;;;;15.97;6.30;;;;;;;;;;4464956;32;20264;-51
2022/03/20 12:30:56;;;;;;;8.90;6.20;;;;;;;;;;4449792;32;20674;-54
2022/03/20 12:33:26;;;;;;;9.43;6.23;;;;;;;;;;4449943;32;20303;-53
2022/03/20 12:35:52;;;;;;;12.10;7.00;;;;;;;;;;4449783;32;20269;-53
2022/03/20 12:38:40;;;;;;;9.03;5.03;;;;;;;;;;4450032;32;20228;-52
2022/03/20 12:41:11;;;;;;;13.10;9.00;;;;;;;;;;4449643;32;20185;-52
2022/03/20 12:43:37;;;;;;;14.00;7.87;;;;;;;;;;4449870;32;20309;-52
2022/03/20 12:46:03;;;;;;;17.80;8.37;;;;;;;;;;4449245;32;20271;-53
2022/03/20 12:48:32;;;;;;;11.73;7.10;;;;;;;;;;4449512;32;20232;-52
2022/03/20 12:51:01;;;;;;;11.10;7.03;;;;;;;;;;4449384;32;20227;-53
2022/03/20 12:53:47;;;;;;;16.10;9.53;;;;;;;;;;4449666;32;20258;-52
2022/03/20 12:58:38;;;;;;;13.97;6.63;;;;;;;;;;4449417;32;20220;-52
2022/03/20 13:01:10;;;;;;;15.70;8.17;;;;;;;;;;4448471;32;20818;-52
2022/03/20 13:03:36;;;;;;;28.03;13.03;;;;;;;;;;4449778;32;20242;-53
2022/03/20 13:06:03;;;;;;;70.70;12.33;;;;;;;;;;4449093;32;20291;-53
2022/03/20 13:08:33;;;;;;;10.47;5.90;;;;;;;;;;4449649;32;20278;-52
2022/03/20 13:11:04;;;;;;;16.60;7.60;;;;;;;;;;4449060;32;20698;-52
2022/03/20 13:13:35;;;;;;;15.97;10.10;;;;;;;;;;4449758;32;20296;-54
2022/03/20 13:16:13;;;;;;;12.53;6.80;;;;;;;;;;4449342;32;20536;-52
2022/03/20 13:18:38;;;;;;;12.07;8.10;;;;;;;;;;4451781;32;20213;-52
2022/03/20 13:21:05;;;;;;;15.30;9.50;;;;;;;;;;4463353;32;20319;-52
2022/03/20 13:23:31;;;;;;;23.73;10.97;;;;;;;;;;4464738;32;20251;-52
2022/03/20 13:25:57;;;;;;;24.40;13.03;;;;;;;;;;4455247;32;20312;-52
2022/03/20 13:28:34;;;;;;;16.90;8.63;;;;;;;;;;4447972;32;20262;-53
2022/03/20 13:31:02;;;;;;;11.03;6.57;;;;;;;;;;4449380;32;20246;-52
2022/03/20 13:33:32;;;;;;;74.80;27.17;;;;;;;;;;4449054;32;20236;-52
2022/03/20 13:36:00;;;;;;;19.43;10.73;;;;;;;;;;4449152;32;20264;-53
2022/03/20 13:38:54;;;;;;;23.60;9.10;;;;;;;;;;4449322;32;20255;-54
2022/03/20 13:41:22;;;;;;;43.97;16.70;;;;;;;;;;4447133;32;20608;-52
2022/03/20 13:43:54;;;;;;;14.10;8.97;;;;;;;;;;4449550;32;20228;-53
2022/03/20 13:46:27;;;;;;;48.53;18.50;;;;;;;;;;4449241;32;20192;-53
2022/03/20 13:48:56;;;;;;;35.70;15.33;;;;;;;;;;4449005;32;20763;-53
2022/03/20 13:51:23;;;;;;;30.30;12.30;;;;;;;;;;4447331;32;20281;-54
2022/03/20 13:54:15;;;;;;;26.67;13.23;;;;;;;;;;4448413;32;20217;-53
2022/03/20 13:56:42;;;;;;;81.43;30.13;;;;;;;;;;4448564;32;20234;-54
2022/03/20 13:59:13;;;;;;;21.37;10.57;;;;;;;;;;4457281;32;20254;-53
2022/03/20 14:01:43;;;;;;;41.27;16.37;;;;;;;;;;4463013;32;20253;-54
2022/03/20 14:04:10;;;;;;;38.80;16.57;;;;;;;;;;4464472;32;20686;-53
2022/03/20 14:06:37;;;;;;;16.77;9.13;;;;;;;;;;4463746;32;20798;-53
2022/03/20 14:09:03;;;;;;;15.17;7.67;;;;;;;;;;4464509;32;20379;-54
2022/03/20 14:11:35;;;;;;;17.13;8.10;;;;;;;;;;4451178;32;20282;-52
2022/03/20 14:14:02;;;;;;;26.17;12.93;;;;;;;;;;4449139;32;20277;-53
2022/03/20 14:16:27;;;;;;;26.70;11.27;;;;;;;;;;4448857;32;20241;-53
2022/03/20 14:18:53;;;;;;;14.03;8.03;;;;;;;;;;4452105;32;20320;-54
2022/03/20 14:21:21;;;;;;;20.90;9.67;;;;;;;;;;4459760;32;20227;-53
2022/03/20 14:24:03;;;;;;;14.97;7.83;;;;;;;;;;4448757;32;20584;-53
2022/03/20 14:26:34;;;;;;;26.23;13.80;;;;;;;;;;4448168;32;20288;-52
2022/03/20 14:40:55;;;;;;;14.20;8.67;;;;;;;;;;4448488;32;20344;-53
2022/03/20 14:43:27;;;;;;;12.90;7.17;;;;;;;;;;4448229;32;20550;-53
2022/03/20 14:46:00;;;;;;;14.30;9.47;;;;;;;;;;4448307;32;20192;-52
2022/03/20 14:48:28;;;;;;;12.73;8.37;;;;;;;;;;4446965;32;20244;-52
2022/03/20 14:50:55;;;;;;;13.03;8.40;;;;;;;;;;4447950;32;20269;-52
2022/03/20 14:53:25;;;;;;;20.57;12.97;;;;;;;;;;4447212;32;20344;-53
2022/03/20 14:55:52;;;;;;;15.73;9.27;;;;;;;;;;4446870;32;20382;-53
2022/03/20 14:58:19;;;;;;;16.57;9.67;;;;;;;;;;4445638;32;20347;-52
2022/03/20 15:00:44;;;;;;;36.27;20.53;;;;;;;;;;4453925;32;20208;-53
2022/03/20 15:03:10;;;;;;;20.73;13.20;;;;;;;;;;4448928;32;20242;-52
2022/03/20 15:05:35;;;;;;;12.53;7.93;;;;;;;;;;4446333;32;20837;-53
2022/03/20 15:13:28;;;;;;;19.20;9.10;;;;;;;;;;4451361;32;20246;-52
2022/03/20 15:15:54;;;;;;;21.47;12.63;;;;;;;;;;4449488;32;20624;-52
2022/03/20 15:18:19;;;;;;;21.17;12.70;;;;;;;;;;4447627;32;20232;-53
2022/03/20 15:20:45;;;;;;;27.50;16.57;;;;;;;;;;4447884;32;20354;-52
2022/03/20 15:23:12;;;;;;;17.57;10.87;;;;;;;;;;4447609;32;20353;-53
2022/03/20 15:25:40;;;;;;;34.80;18.57;;;;;;;;;;4446597;32;20288;-53